Time;durP1;ratioP1;P1;durP2;ratioP2;P2;SDS_P1;SDS_P2;PMS_P1;PMS_P2;Temp;Humidity;BMP_temperature;BMP_pressure;BME280_temperature;BME280_humidity;BME280_pressure;Samples;Min_cycle;Max_cycle;Signal;HPM_P1;HPM_P2
2022/01/19 00:02:12;;;;;;;9.87;4.63;;;;;;;-1.94;72.89;96371.13;5096738;28;20201;-69
2022/01/19 00:04:41;;;;;;;6.90;5.10;;;;;;;-1.86;72.63;96374.75;5095598;28;20308;-69
2022/01/19 00:07:07;;;;;;;11.63;4.60;;;;;;;-1.89;72.52;96379.63;5094826;28;20228;-68
2022/01/19 00:09:34;;;;;;;9.83;4.53;;;;;;;-2.01;72.43;96379.22;5095608;28;20794;-70
2022/01/19 00:12:01;;;;;;;8.37;4.97;;;;;;;-2.06;73.12;96387.34;5095979;28;20262;-68
2022/01/19 00:14:28;;;;;;;9.67;5.63;;;;;;;-2.27;73.96;96391.56;5096237;28;20224;-70
2022/01/19 00:16:56;;;;;;;9.37;6.10;;;;;;;-2.12;73.60;96386.28;5096246;28;20573;-69
2022/01/19 00:19:23;;;;;;;9.43;6.40;;;;;;;-1.94;72.70;96389.41;5096011;28;20285;-68
2022/01/19 00:21:49;;;;;;;12.73;6.50;;;;;;;-2.17;72.91;96387.75;5110785;28;20197;-68
2022/01/19 00:24:16;;;;;;;11.43;6.27;;;;;;;-2.07;73.21;96395.63;5111041;28;20246;-68
2022/01/19 00:26:43;;;;;;;7.50;6.30;;;;;;;-2.02;72.68;96408.25;5111049;28;20193;-68
2022/01/19 00:29:09;;;;;;;12.53;6.77;;;;;;;-2.02;72.89;96404.91;5111132;28;20927;-69
2022/01/19 00:31:36;;;;;;;13.60;6.37;;;;;;;-1.99;72.50;96417.47;5111493;28;20217;-68
2022/01/19 00:34:04;;;;;;;11.07;5.80;;;;;;;-1.96;72.14;96417.56;5110689;28;20227;-68
2022/01/19 00:36:32;;;;;;;16.27;6.47;;;;;;;-1.97;72.30;96410.88;5110616;28;20201;-68
2022/01/19 00:38:58;;;;;;;10.53;6.80;;;;;;;-1.98;72.42;96416.69;5111115;28;20197;-68
2022/01/19 00:41:25;;;;;;;22.10;8.03;;;;;;;-2.18;72.92;96416.78;5110970;28;20193;-66
2022/01/19 00:43:52;;;;;;;14.40;6.87;;;;;;;-2.19;73.14;96421.72;5110830;28;20193;-68
2022/01/19 00:46:21;;;;;;;13.00;5.93;;;;;;;-2.28;73.50;96419.75;5110883;28;20197;-68
2022/01/19 00:48:47;;;;;;;11.57;5.90;;;;;;;-1.95;72.43;96414.28;5110716;28;20193;-69
2022/01/19 00:51:16;;;;;;;16.07;5.30;;;;;;;-1.92;72.25;96416.88;5110463;28;20273;-68
2022/01/19 00:53:42;;;;;;;11.40;5.07;;;;;;;-1.91;72.21;96428.53;5110737;28;20199;-67
2022/01/19 00:56:09;;;;;;;6.60;4.97;;;;;;;-1.80;72.26;96437.28;5110699;28;20280;-69
2022/01/19 00:58:36;;;;;;;12.80;4.73;;;;;;;-1.84;71.80;96442.94;5110742;28;20193;-69
2022/01/19 01:01:02;;;;;;;9.63;4.93;;;;;;;-1.80;71.89;96439.75;5110606;28;20253;-69
2022/01/19 01:03:29;;;;;;;8.53;3.77;;;;;;;-1.81;71.85;96428.94;5110263;28;20249;-68
2022/01/19 01:05:56;;;;;;;9.17;4.50;;;;;;;-1.71;71.42;96450.03;5110284;28;20744;-67
2022/01/19 01:08:24;;;;;;;7.33;4.27;;;;;;;-1.84;71.42;96442.94;5110430;28;20219;-69
2022/01/19 01:10:51;;;;;;;5.73;3.77;;;;;;;-1.92;71.87;96459.22;5110353;28;20224;-67
2022/01/19 01:13:23;;;;;;;9.30;4.30;;;;;;;-1.97;72.13;96460.69;5110212;28;20189;-69
2022/01/19 01:16:01;;;;;;;3.97;3.20;;;;;;;-1.95;71.74;96436.69;5110542;28;20204;-69
2022/01/19 01:18:29;;;;;;;8.03;3.63;;;;;;;-1.94;72.35;96435.91;5110137;28;20287;-68
2022/01/19 01:21:00;;;;;;;9.47;4.37;;;;;;;-1.89;71.76;96444.41;5099977;28;20216;-68
2022/01/19 01:23:32;;;;;;;10.57;5.33;;;;;;;-1.86;71.86;96444.50;5095732;28;20216;-68
2022/01/19 01:25:59;;;;;;;13.33;4.33;;;;;;;-1.93;71.97;96432.63;5093248;28;20734;-67
2022/01/19 01:28:26;;;;;;;8.20;5.20;;;;;;;-2.22;73.06;96434.88;5096894;28;20329;-69
2022/01/19 01:30:55;;;;;;;11.57;5.00;;;;;;;-2.40;73.66;96424.25;5095493;28;20301;-68
2022/01/19 01:33:21;;;;;;;14.17;5.87;;;;;;;-2.34;74.02;96419.50;5091405;28;21022;-69
2022/01/19 01:35:48;;;;;;;11.37;5.47;;;;;;;-2.36;73.58;96425.22;5096943;28;20253;-69
2022/01/19 01:38:15;;;;;;;8.80;5.57;;;;;;;-2.35;73.66;96417.81;5095497;28;20228;-69
2022/01/19 01:40:44;;;;;;;10.97;5.37;;;;;;;-2.35;73.72;96415.31;5095218;28;20236;-68
2022/01/19 01:43:10;;;;;;;6.97;4.73;;;;;;;-2.45;73.84;96416.59;5095482;28;20205;-68
2022/01/19 01:45:41;;;;;;;10.93;5.13;;;;;;;-2.46;74.26;96421.53;5094354;28;20624;-70
2022/01/19 01:48:11;;;;;;;10.53;5.37;;;;;;;-2.50;74.04;96407.28;5096764;28;20205;-68
2022/01/19 01:53:27;;;;;;;4.50;4.07;;;;;;;-2.69;74.72;96405.72;5095245;28;20234;-67
2022/01/19 01:55:58;;;;;;;5.57;3.70;;;;;;;-2.70;75.38;96393.22;5096312;28;20270;-71
2022/01/19 01:58:25;;;;;;;9.90;4.50;;;;;;;-2.62;75.01;96375.31;5096717;28;20205;-69
2022/01/19 02:00:53;;;;;;;10.80;4.00;;;;;;;-2.60;74.96;96392.78;5096784;28;20732;-68
2022/01/19 02:03:20;;;;;;;6.43;3.77;;;;;;;-2.63;74.76;96390.19;5091903;28;20224;-68
2022/01/19 02:08:39;;;;;;;9.67;4.03;;;;;;;-3.08;75.94;96375.19;5088622;28;20212;-70
2022/01/19 02:11:28;;;;;;;8.60;3.90;;;;;;;-3.05;76.27;96370.34;5094572;28;20232;-67
2022/01/19 02:16:51;;;;;;;5.27;3.80;;;;;;;-2.76;75.63;96372.31;5093530;28;20665;-67
2022/01/19 02:22:04;;;;;;;7.60;3.40;;;;;;;-2.75;75.39;96371.53;5098080;28;20208;-67
2022/01/19 02:24:41;;;;;;;4.70;3.30;;;;;;;-2.85;75.51;96368.59;5096267;28;20216;-69
2022/01/19 02:27:14;;;;;;;4.27;3.13;;;;;;;-2.91;75.48;96358.41;5097130;28;20201;-69
2022/01/19 02:40:52;;;;;;;8.33;3.97;;;;;;;-2.85;76.07;96366.97;5097545;28;20224;-67
2022/01/19 02:43:22;;;;;;;4.27;3.50;;;;;;;-2.66;74.62;96360.19;5096651;28;20201;-70
2022/01/19 02:51:17;;;;;;;7.13;3.67;;;;;;;-2.38;73.60;96360.44;5095698;28;20293;-69
2022/01/19 02:53:46;;;;;;;4.63;3.47;;;;;;;-2.22;73.11;96359.34;5098539;28;20292;-67
2022/01/19 02:56:19;;;;;;;8.37;3.10;;;;;;;-2.35;73.30;96368.03;5099169;28;20216;-68
2022/01/19 02:58:46;;;;;;;5.37;3.20;;;;;;;-2.25;72.58;96364.22;5096338;28;20236;-68
2022/01/19 03:09:27;;;;;;;5.87;3.43;;;;;;;-2.90;73.82;96375.88;5099312;28;20212;-67
2022/01/19 03:11:55;;;;;;;8.17;3.77;;;;;;;-2.97;74.68;96368.16;5097167;28;20264;-67
2022/01/19 03:14:22;;;;;;;5.23;3.70;;;;;;;-3.06;74.39;96351.22;5099260;28;20736;-66
2022/01/19 03:16:49;;;;;;;6.23;3.10;;;;;;;-2.81;74.95;96361.34;5099524;28;20647;-67
2022/01/19 03:19:16;;;;;;;4.67;2.87;;;;;;;-2.67;74.07;96364.31;5095574;28;21362;-68
2022/01/19 03:21:43;;;;;;;3.77;3.00;;;;;;;-2.65;73.94;96361.91;5097467;28;20810;-68
2022/01/19 03:24:11;;;;;;;6.83;3.37;;;;;;;-2.65;74.10;96355.28;5098774;28;20200;-68
2022/01/19 03:26:40;;;;;;;10.27;3.70;;;;;;;-2.40;73.62;96367.84;5099234;28;20212;-68
2022/01/19 03:29:07;;;;;;;6.17;3.63;;;;;;;-2.53;73.32;96367.34;5094758;28;20668;-70
2022/01/19 03:31:34;;;;;;;4.53;3.23;;;;;;;-2.65;73.77;96365.22;5096993;28;20317;-67
2022/01/19 03:34:01;;;;;;;6.43;2.90;;;;;;;-2.59;73.19;96364.63;5097234;28;20282;-68
2022/01/19 03:36:28;;;;;;;4.57;3.00;;;;;;;-2.88;73.90;96366.00;5099548;28;20208;-68
2022/01/19 03:38:54;;;;;;;7.17;3.53;;;;;;;-2.88;73.95;96373.47;5099088;28;20206;-69
2022/01/19 03:41:21;;;;;;;3.90;3.67;;;;;;;-2.99;74.12;96388.00;5096818;27;20707;-68
2022/01/19 03:43:50;;;;;;;5.80;3.13;;;;;;;-3.06;74.99;96386.03;5097428;28;21327;-66
2022/01/19 03:46:16;;;;;;;4.37;3.07;;;;;;;-3.03;75.32;96386.16;5098105;28;20200;-68
2022/01/19 03:48:51;;;;;;;5.47;3.00;;;;;;;-3.03;75.28;96378.72;5096376;28;20213;-69
2022/01/19 03:51:18;;;;;;;2.83;2.57;;;;;;;-2.92;74.76;96387.41;5096542;28;20224;-67
2022/01/19 03:53:45;;;;;;;6.37;3.67;;;;;;;-2.80;74.25;96384.56;5098065;28;20229;-69
2022/01/19 03:56:11;;;;;;;5.90;3.27;;;;;;;-2.93;74.60;96374.91;5097918;28;20258;-68
2022/01/19 03:58:39;;;;;;;5.40;3.63;;;;;;;-2.97;75.20;96378.91;5098060;28;20197;-69
2022/01/19 04:01:08;;;;;;;3.50;3.10;;;;;;;-2.95;75.03;96381.47;5098251;28;20225;-68
2022/01/19 04:04:03;;;;;;;3.63;3.33;;;;;;;-3.05;75.40;96367.00;5097642;27;20712;-69
2022/01/19 04:06:51;;;;;;;3.37;3.07;;;;;;;-2.73;74.43;96380.69;5097798;28;20288;-68
2022/01/19 04:09:17;;;;;;;6.77;3.97;;;;;;;-2.59;73.87;96384.53;5095159;28;20197;-69
2022/01/19 04:11:43;;;;;;;6.10;3.73;;;;;;;-2.57;73.97;96375.50;5097498;28;20238;-69
2022/01/19 04:14:23;;;;;;;8.50;3.80;;;;;;;-2.54;73.20;96390.53;5096965;28;20262;-68
2022/01/19 04:16:52;;;;;;;8.83;3.97;;;;;;;-2.81;73.56;96396.16;5094319;28;20209;-67
2022/01/19 04:19:26;;;;;;;11.03;3.87;;;;;;;-2.68;73.21;96396.63;5095684;28;20212;-68
2022/01/19 04:21:55;;;;;;;4.50;3.93;;;;;;;-2.76;73.57;96406.28;5096180;28;20208;-68
2022/01/19 04:24:23;;;;;;;6.47;3.83;;;;;;;-2.67;73.55;96393.34;5096549;28;20208;-67
2022/01/19 04:27:31;;;;;;;10.73;3.73;;;;;;;-2.53;72.50;96409.66;5094392;28;20243;-68
2022/01/19 04:29:52;;;;;;;6.03;3.27;;;;;;;-2.50;72.28;96410.63;5096589;28;20237;-70
2022/01/19 04:32:26;;;;;;;10.27;3.67;;;;;;;-2.66;73.07;96418.28;5094853;28;20320;-68
2022/01/19 04:34:53;;;;;;;8.30;4.33;;;;;;;-2.54;72.96;96420.41;5095785;28;20211;-69
2022/01/19 04:37:34;;;;;;;7.17;3.60;;;;;;;-2.57;72.88;96425.25;5094583;28;20205;-69
2022/01/19 04:46:00;;;;;;;9.53;5.90;;;;;;;-2.76;73.74;96427.03;5097883;28;20285;-68
2022/01/19 05:02:24;;;;;;;4.50;4.07;;;;;;;-3.01;74.35;96439.31;5097300;28;20293;-68
2022/01/19 05:05:04;;;;;;;6.17;3.70;;;;;;;-2.90;73.86;96445.53;5094452;28;20209;-68
2022/01/19 05:07:37;;;;;;;6.63;3.87;;;;;;;-2.76;73.36;96434.50;5095510;28;20212;-70
2022/01/19 05:13:24;;;;;;;7.13;4.13;;;;;;;-2.76;73.09;96439.50;5097247;28;20232;-68
2022/01/19 05:15:51;;;;;;;14.87;4.67;;;;;;;-2.62;72.23;96435.03;5052965;28;20203;-69
2022/01/19 05:18:19;;;;;;;9.77;5.10;;;;;;;-2.88;73.36;96419.09;5050023;28;20272;-69
2022/01/19 05:20:48;;;;;;;14.27;4.90;;;;;;;-2.78;73.57;96456.00;5067856;28;20236;-69
2022/01/19 05:23:16;;;;;;;4.83;3.70;;;;;;;-2.84;73.53;96443.31;5095458;28;20200;-69
2022/01/19 05:25:43;;;;;;;7.87;5.00;;;;;;;-2.91;73.78;96453.78;5095425;28;20223;-70
2022/01/19 05:28:10;;;;;;;8.10;4.67;;;;;;;-2.64;73.28;96451.53;5096392;28;20333;-70
2022/01/19 05:30:37;;;;;;;6.00;3.87;;;;;;;-2.35;72.83;96460.13;5093079;28;20236;-67
2022/01/19 05:33:04;;;;;;;8.63;5.00;;;;;;;-2.20;71.70;96467.31;5094985;28;20232;-69
2022/01/19 05:35:31;;;;;;;44.73;17.37;;;;;;;-2.11;71.45;96458.56;5093894;28;20750;-70
2022/01/19 05:37:59;;;;;;;9.27;5.67;;;;;;;-2.34;72.48;96461.84;5096559;28;20266;-71
2022/01/19 05:40:25;;;;;;;7.27;4.00;;;;;;;-2.49;73.67;96473.72;5096740;28;20236;-71
2022/01/19 05:42:53;;;;;;;6.80;5.47;;;;;;;-2.58;74.94;96463.38;5094589;28;20251;-66
2022/01/19 05:45:20;;;;;;;6.27;4.97;;;;;;;-2.38;74.97;96479.94;5096439;28;20755;-68
2022/01/19 05:47:47;;;;;;;5.97;4.40;;;;;;;-2.35;76.35;96487.53;5095124;28;20212;-69
2022/01/19 05:50:14;;;;;;;13.83;5.90;;;;;;;-2.39;76.36;96485.69;5093574;28;20203;-69
2022/01/19 05:52:41;;;;;;;8.07;4.30;;;;;;;-2.27;76.54;96496.16;5095526;28;20627;-69
2022/01/19 05:55:10;;;;;;;6.53;4.53;;;;;;;-2.07;74.66;96497.75;5096092;28;20699;-69
2022/01/19 05:57:37;;;;;;;7.57;4.30;;;;;;;-1.79;74.17;96491.28;5097556;28;20202;-67
2022/01/19 06:00:06;;;;;;;10.23;4.33;;;;;;;-1.86;74.09;96494.34;5099487;28;20201;-68
2022/01/19 06:02:32;;;;;;;9.33;4.50;;;;;;;-2.15;73.35;96483.28;5098735;28;20205;-67
2022/01/19 06:04:59;;;;;;;6.30;4.20;;;;;;;-2.03;73.16;96507.81;5100297;28;20740;-67
2022/01/19 06:07:29;;;;;;;6.50;4.40;;;;;;;-1.87;72.46;96502.63;5098530;28;20201;-67
2022/01/19 06:10:04;;;;;;;9.37;5.13;;;;;;;-1.66;71.63;96497.56;5098951;28;20201;-68
2022/01/19 06:12:33;;;;;;;19.80;8.97;;;;;;;-1.00;70.17;96491.59;5098331;28;20239;-67
2022/01/19 06:15:00;;;;;;;17.27;6.77;;;;;;;-0.51;68.93;96500.69;5097799;28;20592;-68
2022/01/19 06:17:28;;;;;;;11.33;6.50;;;;;;;0.06;66.80;96504.09;5097898;28;20193;-66
2022/01/19 06:19:55;;;;;;;12.03;6.20;;;;;;;0.65;64.53;96509.97;5099944;28;20384;-67
2022/01/19 06:22:22;;;;;;;9.13;4.83;;;;;;;1.26;62.44;96512.44;5098117;28;20232;-68
2022/01/19 06:24:49;;;;;;;14.37;5.70;;;;;;;1.51;60.51;96503.03;5095969;28;20205;-67
2022/01/19 06:27:16;;;;;;;5.80;4.27;;;;;;;2.33;59.31;96504.91;5098234;28;20632;-69
2022/01/19 06:29:44;;;;;;;4.83;4.33;;;;;;;2.56;58.07;96498.69;5097225;28;20260;-68
2022/01/19 06:32:11;;;;;;;13.87;5.60;;;;;;;2.93;57.19;96505.31;5096566;28;20256;-68
2022/01/19 06:34:37;;;;;;;20.90;9.37;;;;;;;3.51;54.95;96505.47;5097802;28;20197;-68
2022/01/19 06:37:05;;;;;;;12.80;7.20;;;;;;;3.13;55.14;96509.84;5097889;28;20646;-69
2022/01/19 06:39:31;;;;;;;11.03;6.57;;;;;;;3.42;55.32;96507.03;5099937;28;20201;-68
2022/01/19 06:41:58;;;;;;;12.50;8.03;;;;;;;3.45;54.54;96505.38;5095724;28;20209;-69
2022/01/19 06:44:25;;;;;;;9.53;6.57;;;;;;;3.16;55.06;96510.75;5098102;28;20651;-68
2022/01/19 06:46:53;;;;;;;7.37;5.70;;;;;;;4.27;52.99;96511.66;5097770;28;20197;-69
2022/01/19 06:49:19;;;;;;;10.43;5.87;;;;;;;5.47;49.74;96505.50;5098540;28;20313;-68
2022/01/19 06:51:46;;;;;;;8.70;5.27;;;;;;;6.31;48.06;96503.66;5098574;28;20264;-68
2022/01/19 06:54:13;;;;;;;10.55;5.18;;;;;;;6.38;46.82;96500.34;5099453;28;20273;-68
2022/01/19 06:56:40;;;;;;;8.63;5.03;;;;;;;6.63;47.11;96507.22;5097806;28;20726;-69
2022/01/19 06:59:09;;;;;;;11.50;5.60;;;;;;;6.07;48.50;96507.72;5095179;28;21149;-68
2022/01/19 07:01:36;;;;;;;8.35;4.55;;;;;;;5.48;49.95;96503.00;5098954;28;20201;-68
2022/01/19 07:04:06;;;;;;;12.40;5.27;;;;;;;5.07;50.72;96491.69;5097418;28;20659;-69
2022/01/19 07:06:33;;;;;;;10.77;5.40;;;;;;;5.81;50.05;96494.03;5098214;28;20643;-68
2022/01/19 07:09:00;;;;;;;7.95;4.65;;;;;;;5.76;49.99;96498.19;5096717;28;20246;-68
2022/01/19 07:11:27;;;;;;;9.75;4.78;;;;;;;5.43;50.32;96492.06;5096966;28;20225;-68
2022/01/19 07:13:53;;;;;;;8.93;5.10;;;;;;;4.85;51.38;96487.22;5096686;28;21010;-68
2022/01/19 07:16:20;;;;;;;29.40;14.63;;;;;;;5.34;51.03;96481.88;5095036;28;20691;-68
2022/01/19 07:18:47;;;;;;;10.75;5.03;;;;;;;5.20;51.10;96475.84;5095109;28;20293;-69
2022/01/19 07:21:15;;;;;;;9.30;4.60;;;;;;;4.48;52.98;96479.22;5099236;28;20297;-68
2022/01/19 07:23:42;;;;;;;11.30;5.20;;;;;;;4.33;53.54;96476.53;5098870;28;20236;-69
2022/01/19 07:26:08;;;;;;;5.82;5.03;;;;;;;4.19;54.29;96481.38;5094486;28;20843;-68
2022/01/19 07:28:35;;;;;;;6.07;5.18;;;;;;;5.20;52.32;96475.03;5094917;27;20248;-69
2022/01/19 07:31:02;;;;;;;6.70;5.33;;;;;;;6.51;51.22;96464.19;5094925;28;20240;-69
2022/01/19 07:33:28;;;;;;;8.10;4.47;;;;;;;8.02;46.28;96477.94;5098578;28;20221;-69
2022/01/19 07:35:55;;;;;;;11.23;4.72;;;;;;;8.38;44.42;96471.19;5097073;28;21322;-69
2022/01/19 07:38:23;;;;;;;10.25;5.25;;;;;;;8.47;43.22;96456.78;5096058;28;20228;-68
2022/01/19 07:40:50;;;;;;;16.70;4.35;;;;;;;8.94;41.82;96455.75;5098594;28;20291;-69
2022/01/19 07:43:17;;;;;;;13.60;4.70;;;;;;;9.78;40.58;96457.72;5098037;28;20269;-67
2022/01/19 07:45:43;;;;;;;6.95;4.07;;;;;;;8.95;41.50;96461.66;5097454;28;20232;-68
2022/01/19 07:48:11;;;;;;;10.20;4.82;;;;;;;8.13;42.88;96465.28;5098732;28;21465;-68
2022/01/19 07:50:38;;;;;;;13.85;4.93;;;;;;;7.68;45.20;96461.09;5097633;28;20208;-68
2022/01/19 07:53:05;;;;;;;9.02;4.35;;;;;;;7.54;44.18;96470.38;5096076;28;21264;-67
2022/01/19 07:55:34;;;;;;;11.63;4.80;;;;;;;8.48;42.86;96460.16;5097984;28;20250;-68
2022/01/19 07:58:01;;;;;;;8.50;4.43;;;;;;;8.03;43.82;96466.97;5097039;28;20302;-68
2022/01/19 08:00:28;;;;;;;13.30;6.40;;;;;;;7.36;45.02;96467.00;5098105;28;20193;-67
2022/01/19 08:02:55;;;;;;;9.55;5.88;;;;;;;6.56;47.14;96465.06;5096327;28;20196;-67
2022/01/19 08:05:22;;;;;;;16.33;6.93;;;;;;;6.04;49.45;96469.84;5094489;28;20714;-69
2022/01/19 08:07:48;;;;;;;12.10;5.40;;;;;;;6.19;48.71;96473.31;5096746;28;20201;-68
2022/01/19 08:10:15;;;;;;;14.52;5.72;;;;;;;6.82;47.80;96477.81;5097955;28;20679;-70
2022/01/19 08:12:44;;;;;;;13.68;6.03;;;;;;;8.46;44.25;96464.38;5096990;28;20892;-69
2022/01/19 08:15:10;;;;;;;23.10;6.35;;;;;;;9.61;41.37;96460.41;5097800;28;20205;-68
2022/01/19 08:17:37;;;;;;;13.38;8.10;;;;;;;10.22;39.75;96455.66;5098119;28;20276;-68
2022/01/19 08:20:05;;;;;;;12.90;6.78;;;;;;;10.20;39.34;96459.91;5096411;28;20820;-68
2022/01/19 08:22:34;;;;;;;12.95;6.65;;;;;;;10.98;38.76;96460.72;5096022;28;20228;-67
2022/01/19 08:25:00;;;;;;;18.40;6.30;;;;;;;11.64;36.30;96461.47;5095409;28;20233;-68
2022/01/19 08:27:27;;;;;;;16.75;5.65;;;;;;;11.18;37.10;96462.16;5094096;28;20225;-69
2022/01/19 08:29:57;;;;;;;13.15;5.15;;;;;;;12.29;35.50;96446.00;5097497;28;20264;-69
2022/01/19 08:32:24;;;;;;;7.60;4.13;;;;;;;13.71;32.33;96441.31;5097404;28;20644;-68
2022/01/19 08:34:51;;;;;;;6.93;4.85;;;;;;;14.50;31.07;96444.44;5096896;28;20198;-69
2022/01/19 08:37:18;;;;;;;12.48;5.63;;;;;;;14.43;30.69;96427.59;5097835;28;20290;-68
2022/01/19 08:39:44;;;;;;;7.45;4.53;;;;;;;14.28;30.74;96444.16;5097050;28;20201;-69
2022/01/19 08:42:11;;;;;;;10.02;4.57;;;;;;;14.04;30.21;96442.22;5095403;28;20205;-68
2022/01/19 08:44:39;;;;;;;9.68;4.60;;;;;;;13.53;31.38;96435.78;5096483;28;20193;-67
2022/01/19 08:47:08;;;;;;;12.82;4.60;;;;;;;13.10;32.09;96432.47;5096306;28;20204;-70
2022/01/19 08:49:35;;;;;;;16.33;6.70;;;;;;;13.73;30.54;96425.09;5096936;28;20209;-67
2022/01/19 08:52:02;;;;;;;11.48;5.47;;;;;;;11.27;33.83;96434.91;5096402;28;20243;-68
2022/01/19 08:54:29;;;;;;;12.02;6.82;;;;;;;9.26;36.95;96442.03;5096577;28;20205;-69
2022/01/19 08:56:56;;;;;;;14.05;6.22;;;;;;;7.09;41.68;96451.78;5095991;28;20202;-67
2022/01/19 08:59:23;;;;;;;13.50;5.43;;;;;;;5.64;45.76;96450.19;5095230;28;20575;-68
2022/01/19 09:01:50;;;;;;;9.60;5.82;;;;;;;4.61;48.87;96453.38;5092044;28;20695;-68
2022/01/19 09:04:18;;;;;;;8.82;4.50;;;;;;;4.17;50.79;96454.50;5095763;28;20643;-69
2022/01/19 09:06:46;;;;;;;16.17;5.15;;;;;;;3.57;51.97;96440.22;5093633;28;20261;-69
2022/01/19 09:09:12;;;;;;;7.93;4.38;;;;;;;3.62;51.87;96451.19;5092308;28;20225;-68
2022/01/19 09:11:39;;;;;;;9.52;3.60;;;;;;;4.71;49.17;96450.13;5096819;28;20228;-68
2022/01/19 09:14:07;;;;;;;8.73;3.50;;;;;;;5.54;46.74;96441.69;5096592;28;20236;-67
2022/01/19 09:16:34;;;;;;;5.93;3.80;;;;;;;5.79;46.82;96435.16;5092482;28;20212;-67
2022/01/19 09:19:01;;;;;;;5.80;5.05;;;;;;;5.93;45.18;96428.56;5092740;28;20729;-68
2022/01/19 09:21:29;;;;;;;10.37;4.27;;;;;;;5.22;47.62;96427.97;5092691;28;20791;-69
2022/01/19 09:23:56;;;;;;;21.37;5.13;;;;;;;4.90;47.85;96436.09;5093099;28;20703;-69
2022/01/19 09:26:23;;;;;;;13.50;4.73;;;;;;;4.37;49.77;96438.00;5094592;28;20201;-69
2022/01/19 09:28:49;;;;;;;7.37;4.40;;;;;;;4.17;50.63;96434.38;5094056;28;20197;-68
2022/01/19 09:31:18;;;;;;;9.90;3.97;;;;;;;4.68;49.38;96412.34;5095544;28;20197;-69
2022/01/19 09:33:54;;;;;;;10.15;3.97;;;;;;;4.61;49.27;96413.09;5096328;28;20277;-68
2022/01/19 09:36:31;;;;;;;8.50;3.63;;;;;;;4.31;50.46;96412.75;5094951;28;20263;-69
2022/01/19 09:38:59;;;;;;;8.60;4.53;;;;;;;3.87;50.24;96420.56;5097029;28;20193;-68
2022/01/19 09:41:28;;;;;;;4.28;3.85;;;;;;;3.90;50.79;96429.81;5097023;28;20196;-68
2022/01/19 09:43:55;;;;;;;5.20;3.67;;;;;;;3.73;50.99;96417.00;5095570;28;20684;-67
2022/01/19 09:46:22;;;;;;;7.73;4.00;;;;;;;3.97;50.52;96399.72;5096860;28;20200;-68
2022/01/19 09:48:48;;;;;;;7.78;4.00;;;;;;;4.14;50.32;96402.47;5096255;28;20238;-69
2022/01/19 09:51:16;;;;;;;7.70;4.20;;;;;;;4.42;50.05;96399.47;5096806;28;20613;-69
2022/01/19 09:53:42;;;;;;;11.73;5.18;;;;;;;4.38;49.84;96407.81;5093187;28;20301;-68
2022/01/19 09:56:10;;;;;;;10.50;5.07;;;;;;;4.54;49.62;96406.31;5096340;28;20197;-67
2022/01/19 09:58:37;;;;;;;10.53;5.23;;;;;;;4.90;49.29;96417.59;5093613;28;20684;-71
2022/01/19 10:01:04;;;;;;;13.57;5.20;;;;;;;4.42;49.82;96388.56;5095993;28;20333;-68
2022/01/19 10:03:32;;;;;;;10.87;4.53;;;;;;;4.23;50.65;96395.03;5096142;28;20253;-69
2022/01/19 10:06:05;;;;;;;6.65;4.55;;;;;;;4.22;50.64;96387.47;5096518;28;20205;-68
2022/01/19 10:08:35;;;;;;;8.55;3.38;;;;;;;4.25;49.84;96388.34;5094446;28;20683;-67
2022/01/19 10:11:13;;;;;;;3.50;3.25;;;;;;;4.27;49.71;96378.28;5094874;28;20238;-69
2022/01/19 10:19:16;;;;;;;6.40;4.90;;;;;;;4.35;49.60;96371.69;5089281;28;20622;-68
2022/01/19 10:22:17;;;;;;;11.90;3.55;;;;;;;4.22;49.43;96368.16;5094337;28;20209;-70
2022/01/19 10:24:50;;;;;;;7.60;4.47;;;;;;;4.05;50.84;96365.47;5095315;28;20213;-70
2022/01/19 10:27:34;;;;;;;10.55;3.88;;;;;;;4.14;50.40;96379.84;5091842;28;20202;-69
2022/01/19 10:30:21;;;;;;;14.25;7.65;;;;;;;4.28;51.30;96367.41;5096542;28;20232;-69
2022/01/19 10:32:50;;;;;;;7.30;5.25;;;;;;;4.00;50.80;96361.19;5094784;28;20370;-69
2022/01/19 10:35:21;;;;;;;8.07;4.22;;;;;;;4.06;50.48;96352.06;5090756;28;20205;-69
2022/01/19 10:37:50;;;;;;;11.55;4.72;;;;;;;4.10;50.49;96365.53;5095021;28;20283;-68
2022/01/19 10:40:18;;;;;;;9.87;6.27;;;;;;;4.03;50.75;96362.09;5097852;28;20201;-69
2022/01/19 10:42:48;;;;;;;8.73;4.80;;;;;;;4.01;50.99;96352.81;5098035;28;20208;-68
2022/01/19 10:45:16;;;;;;;8.60;4.43;;;;;;;4.16;52.01;96354.69;5096266;28;20287;-69
2022/01/19 10:47:48;;;;;;;7.13;4.15;;;;;;;4.42;51.02;96340.75;5098827;28;20205;-68
2022/01/19 10:50:21;;;;;;;4.88;3.95;;;;;;;4.42;50.63;96326.47;5098255;28;20300;-68
2022/01/19 10:52:48;;;;;;;4.18;3.80;;;;;;;4.26;50.59;96323.75;5097895;28;22088;-71
2022/01/19 10:55:27;;;;;;;7.57;4.53;;;;;;;4.12;51.11;96321.09;5095341;28;20197;-69
2022/01/19 10:57:56;;;;;;;10.80;5.30;;;;;;;4.40;50.72;96317.22;5096791;27;20197;-68
2022/01/19 11:00:25;;;;;;;11.75;5.38;;;;;;;4.24;50.79;96313.69;5098629;28;20310;-69
2022/01/19 11:02:54;;;;;;;8.47;5.13;;;;;;;4.22;50.66;96301.91;5096853;27;20197;-69
2022/01/19 11:05:40;;;;;;;12.70;5.50;;;;;;;4.33;50.55;96292.81;5097367;28;20273;-70
2022/01/19 11:08:08;;;;;;;12.57;5.95;;;;;;;4.37;51.11;96297.06;5095553;28;20198;-70
2022/01/19 11:10:36;;;;;;;11.43;5.37;;;;;;;4.56;50.85;96283.81;5096438;28;20212;-69
2022/01/19 11:13:06;;;;;;;7.65;5.03;;;;;;;4.29;51.03;96291.09;5097570;28;20311;-69
2022/01/19 11:15:33;;;;;;;5.20;3.80;;;;;;;4.22;51.49;96287.66;5095376;28;20667;-70
2022/01/19 11:18:00;;;;;;;6.78;4.47;;;;;;;4.28;50.85;96271.78;5097155;27;20205;-70
2022/01/19 11:20:28;;;;;;;7.10;4.43;;;;;;;4.26;51.25;96274.28;5097925;28;20229;-69
2022/01/19 11:23:13;;;;;;;10.20;4.85;;;;;;;4.39;51.21;96271.06;5098693;28;20904;-68
2022/01/19 11:25:50;;;;;;;6.80;4.10;;;;;;;4.58;50.41;96251.09;5097154;28;20663;-69
2022/01/19 11:28:32;;;;;;;9.93;4.45;;;;;;;4.64;50.29;96258.72;5098066;28;20296;-69
2022/01/19 11:30:59;;;;;;;8.75;4.55;;;;;;;4.41;49.83;96258.50;5098234;28;20651;-69
2022/01/19 11:33:27;;;;;;;8.25;4.15;;;;;;;4.40;50.32;96266.88;5096005;28;20216;-70
2022/01/19 11:35:57;;;;;;;12.55;6.07;;;;;;;4.37;50.78;96266.84;5095626;28;20277;-70
2022/01/19 11:38:33;;;;;;;7.90;4.47;;;;;;;4.35;50.50;96263.47;5096991;28;20197;-70
2022/01/19 11:41:02;;;;;;;10.87;4.60;;;;;;;4.27;50.35;96255.00;5096056;28;20193;-69
2022/01/19 11:43:31;;;;;;;7.38;4.65;;;;;;;4.28;50.66;96244.94;5096755;28;20287;-71
2022/01/19 11:45:59;;;;;;;11.53;5.17;;;;;;;4.21;50.71;96244.88;5095504;28;20667;-69
2022/01/19 11:48:28;;;;;;;11.55;4.82;;;;;;;4.05;50.69;96249.75;5097733;28;20364;-69
2022/01/19 11:51:07;;;;;;;9.15;5.13;;;;;;;3.93;51.30;96244.59;5095954;28;20197;-69
2022/01/19 11:54:02;;;;;;;15.93;6.63;;;;;;;4.04;51.91;96242.19;5097634;28;20285;-68
2022/01/19 11:56:29;;;;;;;11.93;6.32;;;;;;;4.05;51.98;96244.72;5097142;28;20231;-69
2022/01/19 11:59:06;;;;;;;11.87;6.73;;;;;;;4.08;51.95;96234.69;5096801;28;20225;-68
2022/01/19 12:01:33;;;;;;;8.63;4.87;;;;;;;3.77;52.33;96222.59;5095804;28;20670;-69
2022/01/19 12:04:15;;;;;;;17.83;6.55;;;;;;;3.89;51.95;96225.28;5096887;28;20270;-68
2022/01/19 12:06:43;;;;;;;15.75;6.93;;;;;;;4.14;52.61;96233.06;5096025;28;20633;-68
2022/01/19 12:09:11;;;;;;;14.90;5.50;;;;;;;4.23;51.79;96218.88;5094760;28;20209;-70
2022/01/19 12:11:44;;;;;;;5.97;4.93;;;;;;;4.17;52.07;96223.88;5096654;28;20232;-70
2022/01/19 12:14:16;;;;;;;10.38;5.80;;;;;;;4.02;52.25;96198.56;5094387;28;20726;-71
2022/01/19 12:16:57;;;;;;;8.75;5.13;;;;;;;3.93;52.13;96214.44;5095224;28;20576;-70
2022/01/19 12:19:27;;;;;;;8.40;5.53;;;;;;;3.94;52.96;96215.28;5097591;28;20197;-69
2022/01/19 12:22:02;;;;;;;9.77;5.85;;;;;;;3.83;53.66;96207.59;5095877;28;20228;-69
2022/01/19 12:24:32;;;;;;;16.83;5.90;;;;;;;3.80;53.36;96207.56;5097066;28;20519;-69
2022/01/19 12:27:03;;;;;;;9.25;5.97;;;;;;;3.79;52.88;96205.03;5096721;28;20197;-69
2022/01/19 12:29:42;;;;;;;12.90;6.20;;;;;;;3.85;53.28;96198.41;5097172;28;20236;-69
2022/01/19 12:32:30;;;;;;;14.75;5.15;;;;;;;3.78;53.81;96198.31;5096475;28;20209;-70
2022/01/19 12:34:58;;;;;;;18.13;5.90;;;;;;;3.79;53.51;96205.88;5096632;28;20281;-68
2022/01/19 12:37:38;;;;;;;9.70;5.25;;;;;;;3.59;54.36;96203.16;5095692;28;20257;-68
2022/01/19 12:40:07;;;;;;;6.88;4.97;;;;;;;3.20;55.04;96193.47;5094345;28;20254;-69
2022/01/19 12:42:42;;;;;;;10.40;5.37;;;;;;;3.24;55.27;96181.75;5094865;28;20274;-69
2022/01/19 12:45:18;;;;;;;12.40;5.37;;;;;;;3.13;55.51;96186.66;5094736;28;20200;-69
2022/01/19 12:47:50;;;;;;;11.27;5.43;;;;;;;3.22;55.26;96194.31;5108163;28;20208;-68
2022/01/19 12:50:50;;;;;;;14.93;5.17;;;;;;;3.15;55.67;96187.53;5110706;28;20189;-70